sensor_id;sensor_type;location;lat;lon;timestamp;temperature;humidity
12872;DHT22;6504;53.766;9.626;2023-03-24T00:01:22;10.20;99.90
12872;DHT22;6504;53.766;9.626;2023-03-24T00:03:50;10.20;99.90
12872;DHT22;6504;53.766;9.626;2023-03-24T00:06:19;10.20;99.90
12872;DHT22;6504;53.766;9.626;2023-03-24T00:08:48;10.20;99.90
12872;DHT22;6504;53.766;9.626;2023-03-24T00:11:18;10.20;99.90
12872;DHT22;6504;53.766;9.626;2023-03-24T00:13:47;10.20;99.90
12872;DHT22;6504;53.766;9.626;2023-03-24T00:16:17;10.20;99.90
12872;DHT22;6504;53.766;9.626;2023-03-24T00:18:47;10.20;99.90
12872;DHT22;6504;53.766;9.626;2023-03-24T00:21:21;10.30;99.90
12872;DHT22;6504;53.766;9.626;2023-03-24T00:23:51;10.20;99.90
12872;DHT22;6504;53.766;9.626;2023-03-24T00:26:22;10.30;99.90
12872;DHT22;6504;53.766;9.626;2023-03-24T00:28:51;10.30;99.90
12872;DHT22;6504;53.766;9.626;2023-03-24T00:31:22;10.30;99.90
12872;DHT22;6504;53.766;9.626;2023-03-24T00:33:51;10.30;99.90
12872;DHT22;6504;53.766;9.626;2023-03-24T00:36:22;10.30;99.90
12872;DHT22;6504;53.766;9.626;2023-03-24T00:38:51;10.30;99.90
12872;DHT22;6504;53.766;9.626;2023-03-24T00:41:22;10.30;99.90
12872;DHT22;6504;53.766;9.626;2023-03-24T00:43:54;10.30;99.90
12872;DHT22;6504;53.766;9.626;2023-03-24T00:46:23;10.30;99.90
12872;DHT22;6504;53.766;9.626;2023-03-24T00:48:55;10.30;99.90
12872;DHT22;6504;53.766;9.626;2023-03-24T00:51:30;10.30;99.90
12872;DHT22;6504;53.766;9.626;2023-03-24T00:53:58;10.30;99.90
12872;DHT22;6504;53.766;9.626;2023-03-24T00:56:30;10.30;99.90
12872;DHT22;6504;53.766;9.626;2023-03-24T00:58:59;10.30;99.90
12872;DHT22;6504;53.766;9.626;2023-03-24T01:01:30;10.30;99.90
12872;DHT22;6504;53.766;9.626;2023-03-24T01:04:02;10.30;99.90
12872;DHT22;6504;53.766;9.626;2023-03-24T01:06:32;10.30;99.90
12872;DHT22;6504;53.766;9.626;2023-03-24T01:09:04;10.30;99.90
12872;DHT22;6504;53.766;9.626;2023-03-24T01:11:36;10.30;99.90
12872;DHT22;6504;53.766;9.626;2023-03-24T01:14:06;10.30;99.90
12872;DHT22;6504;53.766;9.626;2023-03-24T01:16:34;10.30;99.90
12872;DHT22;6504;53.766;9.626;2023-03-24T01:19:03;10.30;99.90
12872;DHT22;6504;53.766;9.626;2023-03-24T01:21:32;10.30;99.90
12872;DHT22;6504;53.766;9.626;2023-03-24T01:24:01;10.30;99.90
12872;DHT22;6504;53.766;9.626;2023-03-24T01:26:31;10.30;99.90
12872;DHT22;6504;53.766;9.626;2023-03-24T01:29:00;10.30;99.90
12872;DHT22;6504;53.766;9.626;2023-03-24T01:31:28;10.30;99.90
12872;DHT22;6504;53.766;9.626;2023-03-24T01:33:57;10.30;99.90
12872;DHT22;6504;53.766;9.626;2023-03-24T01:36:25;10.30;99.90
12872;DHT22;6504;53.766;9.626;2023-03-24T01:38:53;10.30;99.90
12872;DHT22;6504;53.766;9.626;2023-03-24T01:41:26;10.30;99.90
12872;DHT22;6504;53.766;9.626;2023-03-24T01:43:54;10.30;99.90
12872;DHT22;6504;53.766;9.626;2023-03-24T01:46:23;10.30;99.90
12872;DHT22;6504;53.766;9.626;2023-03-24T01:48:54;10.30;99.90
12872;DHT22;6504;53.766;9.626;2023-03-24T01:51:27;10.30;99.90
12872;DHT22;6504;53.766;9.626;2023-03-24T01:53:59;10.20;99.90
12872;DHT22;6504;53.766;9.626;2023-03-24T01:56:31;10.30;99.90
12872;DHT22;6504;53.766;9.626;2023-03-24T01:59:03;10.30;99.90
12872;DHT22;6504;53.766;9.626;2023-03-24T02:01:33;10.30;99.90
12872;DHT22;6504;53.766;9.626;2023-03-24T02:04:04;10.30;99.90
12872;DHT22;6504;53.766;9.626;2023-03-24T02:06:35;10.30;99.90
12872;DHT22;6504;53.766;9.626;2023-03-24T02:09:08;10.30;99.90
12872;DHT22;6504;53.766;9.626;2023-03-24T02:11:38;10.20;99.90
12872;DHT22;6504;53.766;9.626;2023-03-24T02:14:07;10.30;99.90
12872;DHT22;6504;53.766;9.626;2023-03-24T02:16:55;10.30;99.90
12872;DHT22;6504;53.766;9.626;2023-03-24T02:20:07;10.30;99.90
12872;DHT22;6504;53.766;9.626;2023-03-24T02:26:16;10.30;99.90
12872;DHT22;6504;53.766;9.626;2023-03-24T02:28:56;10.30;99.90
12872;DHT22;6504;53.766;9.626;2023-03-24T02:31:56;10.30;99.90
12872;DHT22;6504;53.766;9.626;2023-03-24T02:34:54;10.30;99.90
12872;DHT22;6504;53.766;9.626;2023-03-24T02:37:58;10.30;99.90
12872;DHT22;6504;53.766;9.626;2023-03-24T02:40:36;10.30;99.90
12872;DHT22;6504;53.766;9.626;2023-03-24T02:43:15;10.30;99.90
12872;DHT22;6504;53.766;9.626;2023-03-24T02:45:52;10.30;99.90
12872;DHT22;6504;53.766;9.626;2023-03-24T02:48:33;10.30;99.90
12872;DHT22;6504;53.766;9.626;2023-03-24T02:51:07;10.30;99.90
12872;DHT22;6504;53.766;9.626;2023-03-24T02:53:43;10.20;99.90
12872;DHT22;6504;53.766;9.626;2023-03-24T02:56:20;10.20;99.90
12872;DHT22;6504;53.766;9.626;2023-03-24T02:58:52;10.20;99.90
12872;DHT22;6504;53.766;9.626;2023-03-24T03:01:25;10.20;99.90
12872;DHT22;6504;53.766;9.626;2023-03-24T03:04:01;10.20;99.90
12872;DHT22;6504;53.766;9.626;2023-03-24T03:06:33;10.20;99.90
12872;DHT22;6504;53.766;9.626;2023-03-24T03:09:06;10.20;99.90
12872;DHT22;6504;53.766;9.626;2023-03-24T03:11:37;10.20;99.90
12872;DHT22;6504;53.766;9.626;2023-03-24T03:14:08;10.20;99.90
12872;DHT22;6504;53.766;9.626;2023-03-24T03:16:41;10.20;99.90
12872;DHT22;6504;53.766;9.626;2023-03-24T03:19:16;10.20;99.90
12872;DHT22;6504;53.766;9.626;2023-03-24T03:21:47;10.20;99.90
12872;DHT22;6504;53.766;9.626;2023-03-24T03:24:19;10.20;99.90
12872;DHT22;6504;53.766;9.626;2023-03-24T03:26:58;10.20;99.90
12872;DHT22;6504;53.766;9.626;2023-03-24T03:29:30;10.30;99.90
12872;DHT22;6504;53.766;9.626;2023-03-24T03:32:02;10.30;99.90
12872;DHT22;6504;53.766;9.626;2023-03-24T03:34:37;10.30;99.90
12872;DHT22;6504;53.766;9.626;2023-03-24T03:37:11;10.30;99.90
12872;DHT22;6504;53.766;9.626;2023-03-24T03:39:45;10.30;99.90
12872;DHT22;6504;53.766;9.626;2023-03-24T03:42:16;10.30;99.90
12872;DHT22;6504;53.766;9.626;2023-03-24T03:44:44;10.30;99.90
12872;DHT22;6504;53.766;9.626;2023-03-24T03:47:12;10.30;99.90
12872;DHT22;6504;53.766;9.626;2023-03-24T03:49:42;10.30;99.90
12872;DHT22;6504;53.766;9.626;2023-03-24T03:52:11;10.30;99.90
12872;DHT22;6504;53.766;9.626;2023-03-24T03:54:39;10.30;99.90
12872;DHT22;6504;53.766;9.626;2023-03-24T03:57:10;10.30;99.90
12872;DHT22;6504;53.766;9.626;2023-03-24T03:59:40;10.30;99.90
12872;DHT22;6504;53.766;9.626;2023-03-24T04:02:21;10.30;99.90
12872;DHT22;6504;53.766;9.626;2023-03-24T04:05:13;10.30;99.90
12872;DHT22;6504;53.766;9.626;2023-03-24T04:08:03;10.30;99.90
12872;DHT22;6504;53.766;9.626;2023-03-24T04:10:56;10.30;99.90
12872;DHT22;6504;53.766;9.626;2023-03-24T04:13:28;10.30;99.90
12872;DHT22;6504;53.766;9.626;2023-03-24T04:16:08;10.40;99.90
12872;DHT22;6504;53.766;9.626;2023-03-24T04:18:47;10.40;99.90
12872;DHT22;6504;53.766;9.626;2023-03-24T04:21:33;10.40;99.90
12872;DHT22;6504;53.766;9.626;2023-03-24T04:24:23;10.40;99.90
12872;DHT22;6504;53.766;9.626;2023-03-24T04:26:57;10.40;99.90
12872;DHT22;6504;53.766;9.626;2023-03-24T04:29:37;10.40;99.90
12872;DHT22;6504;53.766;9.626;2023-03-24T04:32:13;10.40;99.90
12872;DHT22;6504;53.766;9.626;2023-03-24T04:34:48;10.50;99.90
12872;DHT22;6504;53.766;9.626;2023-03-24T04:37:23;10.50;99.90
12872;DHT22;6504;53.766;9.626;2023-03-24T04:39:54;10.50;99.90
12872;DHT22;6504;53.766;9.626;2023-03-24T04:42:27;10.50;99.90
12872;DHT22;6504;53.766;9.626;2023-03-24T04:44:58;10.50;99.90
12872;DHT22;6504;53.766;9.626;2023-03-24T04:47:31;10.50;99.90
12872;DHT22;6504;53.766;9.626;2023-03-24T04:50:01;10.50;99.90
12872;DHT22;6504;53.766;9.626;2023-03-24T04:52:29;10.60;99.90
12872;DHT22;6504;53.766;9.626;2023-03-24T04:54:57;10.60;99.90
12872;DHT22;6504;53.766;9.626;2023-03-24T04:57:26;10.60;99.90
12872;DHT22;6504;53.766;9.626;2023-03-24T04:59:54;10.60;99.90
12872;DHT22;6504;53.766;9.626;2023-03-24T05:02:22;10.60;99.90
12872;DHT22;6504;53.766;9.626;2023-03-24T05:04:52;10.60;99.90
12872;DHT22;6504;53.766;9.626;2023-03-24T05:07:20;10.60;99.90
12872;DHT22;6504;53.766;9.626;2023-03-24T05:09:48;10.60;99.90
12872;DHT22;6504;53.766;9.626;2023-03-24T05:12:18;10.60;99.90
12872;DHT22;6504;53.766;9.626;2023-03-24T05:14:46;10.60;99.90
12872;DHT22;6504;53.766;9.626;2023-03-24T05:17:16;10.60;99.90
12872;DHT22;6504;53.766;9.626;2023-03-24T05:19:56;10.60;99.90
12872;DHT22;6504;53.766;9.626;2023-03-24T05:22:27;10.60;99.90
12872;DHT22;6504;53.766;9.626;2023-03-24T05:24:56;10.60;99.90
12872;DHT22;6504;53.766;9.626;2023-03-24T05:27:24;10.60;99.90
12872;DHT22;6504;53.766;9.626;2023-03-24T05:29:52;10.60;99.90
12872;DHT22;6504;53.766;9.626;2023-03-24T05:32:20;10.70;99.90
12872;DHT22;6504;53.766;9.626;2023-03-24T05:34:48;10.70;99.90
12872;DHT22;6504;53.766;9.626;2023-03-24T05:37:17;10.70;99.90
12872;DHT22;6504;53.766;9.626;2023-03-24T05:39:46;10.70;99.90
12872;DHT22;6504;53.766;9.626;2023-03-24T05:42:14;10.70;99.90
12872;DHT22;6504;53.766;9.626;2023-03-24T05:44:42;10.70;99.90
12872;DHT22;6504;53.766;9.626;2023-03-24T05:47:11;10.70;99.90
12872;DHT22;6504;53.766;9.626;2023-03-24T05:49:41;10.70;99.90
12872;DHT22;6504;53.766;9.626;2023-03-24T05:52:10;10.70;99.90
12872;DHT22;6504;53.766;9.626;2023-03-24T05:54:40;10.80;99.90
12872;DHT22;6504;53.766;9.626;2023-03-24T05:57:11;10.80;99.90
12872;DHT22;6504;53.766;9.626;2023-03-24T05:59:40;10.80;99.90
12872;DHT22;6504;53.766;9.626;2023-03-24T06:02:08;10.80;99.90
12872;DHT22;6504;53.766;9.626;2023-03-24T06:04:36;10.80;99.90
12872;DHT22;6504;53.766;9.626;2023-03-24T06:07:05;10.80;99.90
12872;DHT22;6504;53.766;9.626;2023-03-24T06:09:35;10.90;99.90
12872;DHT22;6504;53.766;9.626;2023-03-24T06:12:08;10.90;99.90
12872;DHT22;6504;53.766;9.626;2023-03-24T06:14:37;10.90;99.90
12872;DHT22;6504;53.766;9.626;2023-03-24T06:17:07;10.90;99.90
12872;DHT22;6504;53.766;9.626;2023-03-24T06:19:35;10.90;99.90
12872;DHT22;6504;53.766;9.626;2023-03-24T06:22:04;10.90;99.90
12872;DHT22;6504;53.766;9.626;2023-03-24T06:24:33;10.90;99.90
12872;DHT22;6504;53.766;9.626;2023-03-24T06:27:02;11.00;99.90
12872;DHT22;6504;53.766;9.626;2023-03-24T06:29:36;11.00;99.90
12872;DHT22;6504;53.766;9.626;2023-03-24T06:32:04;11.00;99.90
12872;DHT22;6504;53.766;9.626;2023-03-24T06:34:32;11.00;99.90
12872;DHT22;6504;53.766;9.626;2023-03-24T06:37:01;11.00;99.90
12872;DHT22;6504;53.766;9.626;2023-03-24T06:39:29;11.10;99.90
12872;DHT22;6504;53.766;9.626;2023-03-24T06:41:57;11.10;99.90
12872;DHT22;6504;53.766;9.626;2023-03-24T06:44:25;11.10;99.90
12872;DHT22;6504;53.766;9.626;2023-03-24T06:46:54;11.10;99.90
12872;DHT22;6504;53.766;9.626;2023-03-24T06:49:23;11.10;99.90
12872;DHT22;6504;53.766;9.626;2023-03-24T06:51:51;11.10;99.90
12872;DHT22;6504;53.766;9.626;2023-03-24T06:54:20;11.10;99.90
12872;DHT22;6504;53.766;9.626;2023-03-24T06:56:48;11.10;99.90
12872;DHT22;6504;53.766;9.626;2023-03-24T06:59:16;11.10;99.90
12872;DHT22;6504;53.766;9.626;2023-03-24T07:01:49;11.10;99.90
12872;DHT22;6504;53.766;9.626;2023-03-24T07:04:20;11.10;99.90
12872;DHT22;6504;53.766;9.626;2023-03-24T07:06:51;11.10;99.90
12872;DHT22;6504;53.766;9.626;2023-03-24T07:09:38;11.00;99.90
12872;DHT22;6504;53.766;9.626;2023-03-24T07:12:06;11.00;99.90
12872;DHT22;6504;53.766;9.626;2023-03-24T07:14:34;11.00;99.90
12872;DHT22;6504;53.766;9.626;2023-03-24T07:17:02;11.00;99.90
12872;DHT22;6504;53.766;9.626;2023-03-24T07:19:32;11.00;99.90
12872;DHT22;6504;53.766;9.626;2023-03-24T07:22:00;10.90;99.90
12872;DHT22;6504;53.766;9.626;2023-03-24T07:24:28;10.90;99.90
12872;DHT22;6504;53.766;9.626;2023-03-24T07:26:57;10.90;99.90
12872;DHT22;6504;53.766;9.626;2023-03-24T07:29:25;10.90;99.90
12872;DHT22;6504;53.766;9.626;2023-03-24T07:31:53;10.90;99.90
12872;DHT22;6504;53.766;9.626;2023-03-24T07:34:24;10.90;99.90
12872;DHT22;6504;53.766;9.626;2023-03-24T07:36:54;10.80;99.90
12872;DHT22;6504;53.766;9.626;2023-03-24T07:39:22;10.80;99.90
12872;DHT22;6504;53.766;9.626;2023-03-24T07:41:50;10.80;99.90
12872;DHT22;6504;53.766;9.626;2023-03-24T07:44:19;10.80;99.90
12872;DHT22;6504;53.766;9.626;2023-03-24T07:46:47;10.70;99.90
12872;DHT22;6504;53.766;9.626;2023-03-24T07:49:15;10.70;99.90
12872;DHT22;6504;53.766;9.626;2023-03-24T07:51:45;10.70;99.90
12872;DHT22;6504;53.766;9.626;2023-03-24T07:54:15;10.70;99.90
12872;DHT22;6504;53.766;9.626;2023-03-24T07:56:43;10.80;99.90
12872;DHT22;6504;53.766;9.626;2023-03-24T07:59:11;10.80;99.90
12872;DHT22;6504;53.766;9.626;2023-03-24T08:01:39;10.90;99.90
12872;DHT22;6504;53.766;9.626;2023-03-24T08:04:09;10.90;99.90
12872;DHT22;6504;53.766;9.626;2023-03-24T08:06:38;10.90;99.90
12872;DHT22;6504;53.766;9.626;2023-03-24T08:09:07;10.90;99.90
12872;DHT22;6504;53.766;9.626;2023-03-24T08:11:38;10.90;99.90
12872;DHT22;6504;53.766;9.626;2023-03-24T08:14:06;10.90;99.90
12872;DHT22;6504;53.766;9.626;2023-03-24T08:16:34;10.90;99.90
12872;DHT22;6504;53.766;9.626;2023-03-24T08:19:04;10.90;99.90
12872;DHT22;6504;53.766;9.626;2023-03-24T08:21:33;10.90;99.90
12872;DHT22;6504;53.766;9.626;2023-03-24T08:24:01;10.90;99.90
12872;DHT22;6504;53.766;9.626;2023-03-24T08:26:29;10.90;99.90
12872;DHT22;6504;53.766;9.626;2023-03-24T08:29:02;10.90;99.90
12872;DHT22;6504;53.766;9.626;2023-03-24T08:31:31;10.90;99.90
12872;DHT22;6504;53.766;9.626;2023-03-24T08:33:59;10.90;99.90
12872;DHT22;6504;53.766;9.626;2023-03-24T08:36:30;10.90;99.90
12872;DHT22;6504;53.766;9.626;2023-03-24T08:38:58;10.80;99.90
12872;DHT22;6504;53.766;9.626;2023-03-24T08:41:30;10.90;99.90
12872;DHT22;6504;53.766;9.626;2023-03-24T08:44:03;10.90;99.90
12872;DHT22;6504;53.766;9.626;2023-03-24T08:46:33;10.80;99.90
12872;DHT22;6504;53.766;9.626;2023-03-24T08:49:02;10.80;99.90
12872;DHT22;6504;53.766;9.626;2023-03-24T08:51:31;10.80;99.90
12872;DHT22;6504;53.766;9.626;2023-03-24T08:53:59;10.80;99.90
12872;DHT22;6504;53.766;9.626;2023-03-24T08:56:29;10.80;99.90
12872;DHT22;6504;53.766;9.626;2023-03-24T08:58:57;10.80;99.90
12872;DHT22;6504;53.766;9.626;2023-03-24T09:01:27;10.90;99.90
12872;DHT22;6504;53.766;9.626;2023-03-24T09:03:55;10.90;99.90
12872;DHT22;6504;53.766;9.626;2023-03-24T09:06:25;10.90;99.90
12872;DHT22;6504;53.766;9.626;2023-03-24T09:08:54;10.90;99.90
12872;DHT22;6504;53.766;9.626;2023-03-24T09:11:22;10.90;99.90
12872;DHT22;6504;53.766;9.626;2023-03-24T09:13:50;10.90;99.90
12872;DHT22;6504;53.766;9.626;2023-03-24T09:16:18;10.90;99.90
12872;DHT22;6504;53.766;9.626;2023-03-24T09:18:48;10.90;99.90
12872;DHT22;6504;53.766;9.626;2023-03-24T09:21:16;10.90;99.90
12872;DHT22;6504;53.766;9.626;2023-03-24T09:23:44;10.90;99.90
12872;DHT22;6504;53.766;9.626;2023-03-24T09:26:12;11.00;99.90
12872;DHT22;6504;53.766;9.626;2023-03-24T09:28:40;11.00;99.90
12872;DHT22;6504;53.766;9.626;2023-03-24T09:31:09;11.00;99.90
12872;DHT22;6504;53.766;9.626;2023-03-24T09:33:38;11.10;99.90
12872;DHT22;6504;53.766;9.626;2023-03-24T09:36:09;11.10;99.90
12872;DHT22;6504;53.766;9.626;2023-03-24T09:38:38;11.10;99.90
12872;DHT22;6504;53.766;9.626;2023-03-24T09:41:15;11.10;99.90
12872;DHT22;6504;53.766;9.626;2023-03-24T09:43:46;11.10;99.90
12872;DHT22;6504;53.766;9.626;2023-03-24T09:46:22;11.10;99.90
12872;DHT22;6504;53.766;9.626;2023-03-24T09:48:54;11.10;99.90
12872;DHT22;6504;53.766;9.626;2023-03-24T09:51:26;11.00;99.90
12872;DHT22;6504;53.766;9.626;2023-03-24T09:53:59;11.00;99.90
12872;DHT22;6504;53.766;9.626;2023-03-24T09:56:31;11.10;99.90
12872;DHT22;6504;53.766;9.626;2023-03-24T09:59:03;11.10;99.90
12872;DHT22;6504;53.766;9.626;2023-03-24T10:01:33;11.10;99.90
12872;DHT22;6504;53.766;9.626;2023-03-24T10:04:01;11.10;99.90
12872;DHT22;6504;53.766;9.626;2023-03-24T10:06:37;11.10;99.90
12872;DHT22;6504;53.766;9.626;2023-03-24T10:09:21;11.10;99.90
12872;DHT22;6504;53.766;9.626;2023-03-24T10:11:59;11.00;99.90
12872;DHT22;6504;53.766;9.626;2023-03-24T10:14:43;11.00;99.90
12872;DHT22;6504;53.766;9.626;2023-03-24T10:17:19;11.10;99.90
12872;DHT22;6504;53.766;9.626;2023-03-24T10:19:55;11.20;99.90
12872;DHT22;6504;53.766;9.626;2023-03-24T10:22:29;11.20;99.90
12872;DHT22;6504;53.766;9.626;2023-03-24T10:25:04;11.20;99.90
12872;DHT22;6504;53.766;9.626;2023-03-24T10:27:36;11.30;99.90
12872;DHT22;6504;53.766;9.626;2023-03-24T10:30:14;11.40;99.90
12872;DHT22;6504;53.766;9.626;2023-03-24T10:32:43;11.50;99.90
12872;DHT22;6504;53.766;9.626;2023-03-24T10:35:15;11.50;99.90
12872;DHT22;6504;53.766;9.626;2023-03-24T10:37:47;11.50;99.90
12872;DHT22;6504;53.766;9.626;2023-03-24T10:40:17;11.50;99.90
12872;DHT22;6504;53.766;9.626;2023-03-24T10:42:47;11.50;99.90
12872;DHT22;6504;53.766;9.626;2023-03-24T10:45:37;11.50;99.90
12872;DHT22;6504;53.766;9.626;2023-03-24T10:48:06;11.50;99.90
12872;DHT22;6504;53.766;9.626;2023-03-24T10:50:41;11.50;99.90
12872;DHT22;6504;53.766;9.626;2023-03-24T10:53:17;11.60;99.90
12872;DHT22;6504;53.766;9.626;2023-03-24T10:55:46;11.80;99.90
12872;DHT22;6504;53.766;9.626;2023-03-24T10:58:19;11.80;99.90
12872;DHT22;6504;53.766;9.626;2023-03-24T11:00:51;11.80;99.90
12872;DHT22;6504;53.766;9.626;2023-03-24T11:03:24;11.80;99.90
12872;DHT22;6504;53.766;9.626;2023-03-24T11:05:58;11.70;99.90
12872;DHT22;6504;53.766;9.626;2023-03-24T11:08:34;11.70;99.90
12872;DHT22;6504;53.766;9.626;2023-03-24T11:11:13;11.60;99.90
12872;DHT22;6504;53.766;9.626;2023-03-24T11:13:53;11.60;99.90
12872;DHT22;6504;53.766;9.626;2023-03-24T11:16:26;11.70;99.90
12872;DHT22;6504;53.766;9.626;2023-03-24T11:18:58;11.70;99.90
12872;DHT22;6504;53.766;9.626;2023-03-24T11:21:28;11.70;99.90
12872;DHT22;6504;53.766;9.626;2023-03-24T11:23:59;11.80;99.90
12872;DHT22;6504;53.766;9.626;2023-03-24T11:26:30;11.90;99.90
12872;DHT22;6504;53.766;9.626;2023-03-24T11:29:01;12.00;99.90
12872;DHT22;6504;53.766;9.626;2023-03-24T11:31:32;12.10;99.90
12872;DHT22;6504;53.766;9.626;2023-03-24T11:34:08;12.10;99.90
12872;DHT22;6504;53.766;9.626;2023-03-24T11:36:42;12.10;99.90
12872;DHT22;6504;53.766;9.626;2023-03-24T11:39:17;12.20;99.90
12872;DHT22;6504;53.766;9.626;2023-03-24T11:41:59;12.20;99.90
12872;DHT22;6504;53.766;9.626;2023-03-24T11:44:32;12.30;99.90
12872;DHT22;6504;53.766;9.626;2023-03-24T11:47:10;12.40;99.90
12872;DHT22;6504;53.766;9.626;2023-03-24T11:49:43;12.50;99.90
12872;DHT22;6504;53.766;9.626;2023-03-24T11:52:19;12.60;99.90
12872;DHT22;6504;53.766;9.626;2023-03-24T11:54:50;12.60;99.90
12872;DHT22;6504;53.766;9.626;2023-03-24T11:57:26;12.70;99.90
12872;DHT22;6504;53.766;9.626;2023-03-24T12:00:03;12.70;99.90
12872;DHT22;6504;53.766;9.626;2023-03-24T12:02:46;12.80;99.90
12872;DHT22;6504;53.766;9.626;2023-03-24T12:05:28;12.90;99.90
12872;DHT22;6504;53.766;9.626;2023-03-24T12:08:17;13.00;99.90
12872;DHT22;6504;53.766;9.626;2023-03-24T12:10:59;13.00;99.90
12872;DHT22;6504;53.766;9.626;2023-03-24T12:13:34;13.20;99.90
12872;DHT22;6504;53.766;9.626;2023-03-24T12:16:17;13.20;99.90
12872;DHT22;6504;53.766;9.626;2023-03-24T12:19:09;13.30;99.90
12872;DHT22;6504;53.766;9.626;2023-03-24T12:21:49;13.30;99.90
12872;DHT22;6504;53.766;9.626;2023-03-24T12:24:27;13.20;99.90
12872;DHT22;6504;53.766;9.626;2023-03-24T12:26:59;13.20;99.90
12872;DHT22;6504;53.766;9.626;2023-03-24T12:29:43;13.10;99.90
12872;DHT22;6504;53.766;9.626;2023-03-24T12:32:30;13.20;99.90
12872;DHT22;6504;53.766;9.626;2023-03-24T12:35:27;13.20;99.90
12872;DHT22;6504;53.766;9.626;2023-03-24T12:38:09;13.20;99.90
12872;DHT22;6504;53.766;9.626;2023-03-24T12:41:00;13.20;99.90
12872;DHT22;6504;53.766;9.626;2023-03-24T12:43:36;13.30;99.90
12872;DHT22;6504;53.766;9.626;2023-03-24T12:46:20;13.40;99.90
12872;DHT22;6504;53.766;9.626;2023-03-24T12:52:15;13.60;99.90
12872;DHT22;6504;53.766;9.626;2023-03-24T12:54:52;13.70;99.90
12872;DHT22;6504;53.766;9.626;2023-03-24T12:57:24;13.70;99.90
12872;DHT22;6504;53.766;9.626;2023-03-24T12:59:58;13.90;99.90
12872;DHT22;6504;53.766;9.626;2023-03-24T13:02:31;13.90;99.90
12872;DHT22;6504;53.766;9.626;2023-03-24T13:05:06;13.80;99.90
12872;DHT22;6504;53.766;9.626;2023-03-24T13:07:35;13.70;99.90
12872;DHT22;6504;53.766;9.626;2023-03-24T13:10:11;13.70;99.90
12872;DHT22;6504;53.766;9.626;2023-03-24T13:12:44;13.70;99.90
12872;DHT22;6504;53.766;9.626;2023-03-24T13:15:18;13.60;99.90
12872;DHT22;6504;53.766;9.626;2023-03-24T13:17:50;13.50;99.90
12872;DHT22;6504;53.766;9.626;2023-03-24T13:20:24;13.60;99.90
12872;DHT22;6504;53.766;9.626;2023-03-24T13:22:54;13.60;99.90
12872;DHT22;6504;53.766;9.626;2023-03-24T13:25:31;13.60;99.90
12872;DHT22;6504;53.766;9.626;2023-03-24T13:28:09;13.60;99.90
12872;DHT22;6504;53.766;9.626;2023-03-24T13:30:40;13.70;99.90
12872;DHT22;6504;53.766;9.626;2023-03-24T13:33:13;13.70;99.90
12872;DHT22;6504;53.766;9.626;2023-03-24T13:36:04;13.80;99.90
12872;DHT22;6504;53.766;9.626;2023-03-24T13:38:38;13.80;99.90
12872;DHT22;6504;53.766;9.626;2023-03-24T13:41:11;13.80;99.90
12872;DHT22;6504;53.766;9.626;2023-03-24T13:43:46;13.80;99.90
12872;DHT22;6504;53.766;9.626;2023-03-24T13:46:17;13.80;99.90
12872;DHT22;6504;53.766;9.626;2023-03-24T13:48:49;13.90;99.90
12872;DHT22;6504;53.766;9.626;2023-03-24T13:51:20;13.80;99.90
12872;DHT22;6504;53.766;9.626;2023-03-24T13:53:52;13.90;99.90
12872;DHT22;6504;53.766;9.626;2023-03-24T13:56:24;13.90;99.90
12872;DHT22;6504;53.766;9.626;2023-03-24T13:59:13;13.80;99.90
12872;DHT22;6504;53.766;9.626;2023-03-24T14:02:10;13.90;99.90
12872;DHT22;6504;53.766;9.626;2023-03-24T14:04:45;14.00;99.90
12872;DHT22;6504;53.766;9.626;2023-03-24T14:07:30;14.10;99.90
12872;DHT22;6504;53.766;9.626;2023-03-24T14:10:00;14.10;99.90
12872;DHT22;6504;53.766;9.626;2023-03-24T14:12:31;14.20;99.90
12872;DHT22;6504;53.766;9.626;2023-03-24T14:15:15;14.20;99.90
12872;DHT22;6504;53.766;9.626;2023-03-24T14:17:47;14.30;99.90
12872;DHT22;6504;53.766;9.626;2023-03-24T14:20:32;14.30;99.90
12872;DHT22;6504;53.766;9.626;2023-03-24T14:23:01;14.40;99.90
12872;DHT22;6504;53.766;9.626;2023-03-24T14:25:31;14.30;99.90
12872;DHT22;6504;53.766;9.626;2023-03-24T14:33:59;13.90;99.90
12872;DHT22;6504;53.766;9.626;2023-03-24T14:36:33;13.80;99.90
12872;DHT22;6504;53.766;9.626;2023-03-24T14:39:11;13.70;99.90
12872;DHT22;6504;53.766;9.626;2023-03-24T14:41:45;13.80;99.90
12872;DHT22;6504;53.766;9.626;2023-03-24T14:44:51;13.90;99.90
12872;DHT22;6504;53.766;9.626;2023-03-24T14:47:22;14.00;99.90
12872;DHT22;6504;53.766;9.626;2023-03-24T14:49:58;14.00;99.90
12872;DHT22;6504;53.766;9.626;2023-03-24T14:52:30;14.10;99.90
12872;DHT22;6504;53.766;9.626;2023-03-24T14:55:02;14.10;99.90
12872;DHT22;6504;53.766;9.626;2023-03-24T14:57:36;14.20;99.90
12872;DHT22;6504;53.766;9.626;2023-03-24T15:00:09;14.20;99.90
12872;DHT22;6504;53.766;9.626;2023-03-24T15:02:43;14.20;99.90
12872;DHT22;6504;53.766;9.626;2023-03-24T15:05:21;14.20;99.90
12872;DHT22;6504;53.766;9.626;2023-03-24T15:08:12;14.30;99.90
12872;DHT22;6504;53.766;9.626;2023-03-24T15:10:45;14.30;99.90
12872;DHT22;6504;53.766;9.626;2023-03-24T15:13:27;14.30;99.90
12872;DHT22;6504;53.766;9.626;2023-03-24T15:15:56;14.30;99.90
12872;DHT22;6504;53.766;9.626;2023-03-24T15:18:24;14.30;99.90
12872;DHT22;6504;53.766;9.626;2023-03-24T15:20:54;14.30;99.90
12872;DHT22;6504;53.766;9.626;2023-03-24T15:23:23;14.30;99.90
12872;DHT22;6504;53.766;9.626;2023-03-24T15:25:52;14.30;99.90
12872;DHT22;6504;53.766;9.626;2023-03-24T15:28:25;14.30;99.90
12872;DHT22;6504;53.766;9.626;2023-03-24T15:30:54;14.30;99.90
12872;DHT22;6504;53.766;9.626;2023-03-24T15:33:25;14.20;99.90
12872;DHT22;6504;53.766;9.626;2023-03-24T15:35:58;14.20;99.90
12872;DHT22;6504;53.766;9.626;2023-03-24T15:38:28;14.20;99.90
12872;DHT22;6504;53.766;9.626;2023-03-24T15:40:58;14.20;99.90
12872;DHT22;6504;53.766;9.626;2023-03-24T15:43:26;14.20;99.90
12872;DHT22;6504;53.766;9.626;2023-03-24T15:45:56;14.20;99.90
12872;DHT22;6504;53.766;9.626;2023-03-24T15:48:37;14.10;99.90
12872;DHT22;6504;53.766;9.626;2023-03-24T15:51:08;14.10;99.90
12872;DHT22;6504;53.766;9.626;2023-03-24T15:53:40;14.00;99.90
12872;DHT22;6504;53.766;9.626;2023-03-24T15:56:16;13.90;99.90
12872;DHT22;6504;53.766;9.626;2023-03-24T15:58:48;13.90;99.90
12872;DHT22;6504;53.766;9.626;2023-03-24T16:01:22;13.80;99.90
12872;DHT22;6504;53.766;9.626;2023-03-24T16:03:52;13.80;99.90
12872;DHT22;6504;53.766;9.626;2023-03-24T16:06:27;13.80;99.90
12872;DHT22;6504;53.766;9.626;2023-03-24T16:09:03;13.80;99.90
12872;DHT22;6504;53.766;9.626;2023-03-24T16:11:32;13.80;99.90
12872;DHT22;6504;53.766;9.626;2023-03-24T16:14:01;13.70;99.90
12872;DHT22;6504;53.766;9.626;2023-03-24T16:16:41;13.70;99.90
12872;DHT22;6504;53.766;9.626;2023-03-24T16:19:10;13.70;99.90
12872;DHT22;6504;53.766;9.626;2023-03-24T16:21:39;13.70;99.90
12872;DHT22;6504;53.766;9.626;2023-03-24T16:24:07;13.60;99.90
12872;DHT22;6504;53.766;9.626;2023-03-24T16:26:35;13.60;99.90
12872;DHT22;6504;53.766;9.626;2023-03-24T16:29:13;13.50;99.90
12872;DHT22;6504;53.766;9.626;2023-03-24T16:31:42;13.40;99.90
12872;DHT22;6504;53.766;9.626;2023-03-24T16:34:11;13.30;99.90